createdAt,value
2023-01-21T00:02:18.801Z,43.08
2023-01-21T00:07:20.930Z,41.30
2023-01-21T00:12:22.686Z,48.60
2023-01-21T00:17:24.567Z,52.35
2023-01-21T00:22:26.379Z,47.92
2023-01-21T00:27:28.169Z,50.50
2023-01-21T00:32:29.965Z,41.28
2023-01-21T00:37:31.775Z,49.50
2023-01-21T00:42:36.444Z,48.65
2023-01-21T00:47:38.228Z,40.38
2023-01-21T00:52:39.980Z,45.53
2023-01-21T00:57:41.808Z,44.25
2023-01-21T01:02:43.918Z,43.97
2023-01-21T01:07:47.658Z,47.88
2023-01-21T01:12:51.961Z,46.38
2023-01-21T01:17:53.730Z,52.95
2023-01-21T01:22:55.526Z,52.72
2023-01-21T01:27:57.259Z,46.25
2023-01-21T01:32:59.902Z,53.88
2023-01-21T01:38:07.897Z,54.47
2023-01-21T01:43:18.520Z,53.95
2023-01-21T01:48:28.467Z,52.65
2023-01-21T01:53:32.181Z,48.05
2023-01-21T01:58:37.867Z,53.10
2023-01-21T02:03:46.000Z,53.05
2023-01-21T02:08:48.438Z,58.35
2023-01-21T02:13:54.052Z,54.72
2023-01-21T02:18:58.525Z,50.20
2023-01-21T02:24:27.156Z,58.35
2023-01-21T02:30:07.081Z,55.28
2023-01-21T02:35:18.652Z,44.03
2023-01-21T02:40:34.408Z,63.75
2023-01-21T02:46:20.837Z,63.63
2023-01-21T02:51:24.179Z,57.78
2023-01-21T02:56:27.767Z,56.33
2023-01-21T03:01:57.028Z,64.55
2023-01-21T03:07:28.654Z,59.45
2023-01-21T03:13:06.825Z,65.93
2023-01-21T03:18:13.596Z,65.15
2023-01-21T03:23:22.609Z,60.00
2023-01-21T03:28:29.414Z,68.50
2023-01-21T03:33:35.928Z,77.88
2023-01-21T03:38:43.965Z,69.93
2023-01-21T03:43:45.948Z,66.50
2023-01-21T03:49:20.494Z,70.20
2023-01-21T03:54:25.735Z,70.65
2023-01-21T03:59:27.478Z,65.63
2023-01-21T04:04:29.231Z,65.10
2023-01-21T04:09:31.008Z,64.50
2023-01-21T04:14:33.045Z,65.05
2023-01-21T04:19:34.913Z,67.35
2023-01-21T04:24:36.666Z,58.58
2023-01-21T04:29:38.649Z,72.32
2023-01-21T04:34:40.646Z,68.50
2023-01-21T04:39:42.453Z,67.88
2023-01-21T04:44:45.029Z,66.45
2023-01-21T04:49:48.861Z,77.70
2023-01-21T04:54:50.762Z,65.75
2023-01-21T04:59:52.502Z,71.80
2023-01-21T05:04:54.296Z,73.80
2023-01-21T05:09:56.108Z,70.47
2023-01-21T05:14:58.055Z,76.35
2023-01-21T05:19:59.783Z,71.22
2023-01-21T05:25:01.629Z,77.20
2023-01-21T05:30:05.397Z,68.13
2023-01-21T05:35:07.699Z,79.47
2023-01-21T05:40:10.168Z,77.38
2023-01-21T05:45:13.465Z,67.38
2023-01-21T05:50:15.710Z,71.40
2023-01-21T05:55:17.761Z,73.38
2023-01-21T06:00:20.223Z,80.95
2023-01-21T06:05:22.168Z,77.07
2023-01-21T06:10:23.932Z,70.90
2023-01-21T06:15:26.110Z,73.38
2023-01-21T06:20:31.542Z,76.60
2023-01-21T06:25:33.815Z,62.78
2023-01-21T06:30:35.566Z,73.53
2023-01-21T06:35:37.336Z,79.13
2023-01-21T06:40:39.286Z,78.70
2023-01-21T06:45:41.427Z,75.43
2023-01-21T06:50:43.300Z,71.65
2023-01-21T06:55:47.396Z,76.13
2023-01-21T07:00:49.154Z,67.40
2023-01-21T07:05:50.946Z,77.60
2023-01-21T07:10:53.029Z,79.90
2023-01-21T07:16:02.210Z,83.25
2023-01-21T07:21:04.323Z,87.63
2023-01-21T07:26:06.309Z,75.75
2023-01-21T07:31:09.081Z,78.40
2023-01-21T07:36:10.912Z,79.60
2023-01-21T07:41:12.687Z,84.10
2023-01-21T07:46:17.121Z,75.18
2023-01-21T07:51:19.759Z,81.32
2023-01-21T07:56:21.567Z,76.60
2023-01-21T08:01:27.014Z,79.05
2023-01-21T08:06:28.820Z,83.15
2023-01-21T08:11:30.678Z,80.20
2023-01-21T08:16:32.486Z,71.70
2023-01-21T08:21:34.335Z,79.57
2023-01-21T08:26:36.115Z,86.30
2023-01-21T08:31:37.993Z,82.68
2023-01-21T08:36:39.875Z,83.43
2023-01-21T08:41:41.798Z,76.15
2023-01-21T08:46:43.594Z,85.88
2023-01-21T08:51:45.365Z,80.85
2023-01-21T08:56:47.264Z,85.47
2023-01-21T09:01:49.116Z,84.57
2023-01-21T09:06:51.055Z,78.15
2023-01-21T09:11:53.097Z,74.18
2023-01-21T09:16:55.937Z,83.60
2023-01-21T09:21:57.769Z,73.28
2023-01-21T09:26:59.589Z,85.47
2023-01-21T09:32:05.320Z,74.60
2023-01-21T09:37:07.136Z,86.68
2023-01-21T09:42:19.866Z,91.65
2023-01-21T09:47:30.803Z,79.35
2023-01-21T09:52:41.026Z,80.43
2023-01-21T09:57:55.215Z,58.83
2023-01-21T10:03:16.339Z,75.28
2023-01-21T10:08:38.663Z,80.65
2023-01-21T10:14:09.542Z,78.57
2023-01-21T10:19:20.758Z,80.75
2023-01-21T10:24:34.109Z,72.07
2023-01-21T10:29:41.674Z,80.13
2023-01-21T10:34:55.098Z,78.88
2023-01-21T10:40:45.300Z,73.18
2023-01-21T10:45:59.605Z,66.72
2023-01-21T10:51:11.296Z,75.25
2023-01-21T10:56:44.326Z,79.97
2023-01-21T11:01:52.000Z,68.28
2023-01-21T11:07:05.198Z,74.55
2023-01-21T11:12:10.495Z,81.53
2023-01-21T11:17:12.285Z,80.82
2023-01-21T11:22:16.994Z,75.40
2023-01-21T11:27:39.754Z,74.78
2023-01-21T11:32:41.666Z,77.18
2023-01-21T11:37:45.669Z,86.00
2023-01-21T11:42:56.561Z,81.28
2023-01-21T11:47:59.699Z,85.38
2023-01-21T11:53:11.477Z,81.68
2023-01-21T11:58:24.510Z,85.07
2023-01-21T12:03:44.518Z,89.13
2023-01-21T12:08:50.248Z,104.63
2023-01-21T12:13:54.709Z,92.82
2023-01-21T12:19:09.151Z,92.53
2023-01-21T12:24:19.992Z,98.03
2023-01-21T12:29:51.617Z,82.88
2023-01-21T12:35:13.698Z,85.93
2023-01-21T12:40:30.627Z,79.35
2023-01-21T12:45:43.474Z,88.72
2023-01-21T12:50:57.255Z,81.55
2023-01-21T12:56:05.467Z,94.45
2023-01-21T13:01:13.142Z,80.47
2023-01-21T13:06:47.166Z,86.05
2023-01-21T13:12:03.034Z,75.85
2023-01-21T13:17:16.924Z,83.10
2023-01-21T13:22:40.602Z,81.10
2023-01-21T13:28:05.340Z,81.53
2023-01-21T13:33:28.666Z,76.63
2023-01-21T13:38:48.393Z,79.05
2023-01-21T13:43:55.922Z,62.30
2023-01-21T13:49:29.885Z,68.28
2023-01-21T13:55:17.023Z,80.03
2023-01-21T14:00:24.731Z,84.10
2023-01-21T14:05:39.231Z,82.85
2023-01-21T14:10:56.623Z,75.60
2023-01-21T14:16:07.327Z,81.75
2023-01-21T14:21:53.436Z,80.15
2023-01-21T14:27:08.290Z,83.97
2023-01-21T14:32:26.847Z,85.93
2023-01-21T14:37:34.383Z,94.60
2023-01-21T14:42:49.284Z,88.13
2023-01-21T14:47:55.791Z,80.15
2023-01-21T14:52:57.611Z,89.50
2023-01-21T14:58:01.918Z,81.13
2023-01-21T15:03:20.343Z,92.10
2023-01-21T15:08:25.725Z,85.57
2023-01-21T15:13:34.395Z,82.80
2023-01-21T15:18:45.079Z,94.88
2023-01-21T15:23:50.117Z,79.70
2023-01-21T15:28:58.096Z,79.72
2023-01-21T15:34:15.154Z,73.90
2023-01-21T15:39:31.443Z,78.50
2023-01-21T15:44:45.305Z,78.47
2023-01-21T15:49:57.788Z,84.82
2023-01-21T15:55:34.107Z,76.00
2023-01-21T16:01:08.517Z,84.13
2023-01-21T16:06:57.902Z,87.70
2023-01-21T16:12:17.665Z,90.28
2023-01-21T16:17:30.259Z,59.53
2023-01-21T16:22:35.603Z,80.28
2023-01-21T16:27:37.417Z,80.53
2023-01-21T16:32:39.314Z,80.07
2023-01-21T16:37:43.666Z,81.88
2023-01-21T16:42:45.556Z,69.70
2023-01-21T16:47:56.857Z,74.75
2023-01-21T16:53:00.453Z,77.47
2023-01-21T16:58:03.869Z,95.05
2023-01-21T17:03:07.490Z,80.03
2023-01-21T17:08:11.615Z,76.28
2023-01-21T17:13:16.264Z,85.03
2023-01-21T17:18:25.818Z,83.97
2023-01-21T17:23:31.361Z,54.40
2023-01-21T17:28:39.674Z,83.05
2023-01-21T17:33:45.061Z,77.88
2023-01-21T17:38:47.349Z,76.50
2023-01-21T17:43:50.620Z,82.65
2023-01-21T17:48:57.947Z,85.55
2023-01-21T17:54:05.655Z,83.10
2023-01-21T17:59:31.433Z,80.65
2023-01-21T18:04:33.285Z,102.47
2023-01-21T18:09:35.245Z,80.93
2023-01-21T18:14:37.174Z,88.75
2023-01-21T18:19:40.179Z,76.78
2023-01-21T18:24:41.922Z,83.95
2023-01-21T18:29:44.548Z,88.22
2023-01-21T18:34:46.942Z,96.45
2023-01-21T18:39:48.686Z,85.35
2023-01-21T18:44:50.732Z,84.72
2023-01-21T18:49:52.544Z,91.85
2023-01-21T18:54:54.384Z,94.13
2023-01-21T18:59:56.163Z,100.05
2023-01-21T19:04:58.024Z,97.13
2023-01-21T19:09:59.896Z,89.13
2023-01-21T19:15:02.246Z,104.90
2023-01-21T19:20:04.621Z,108.90
2023-01-21T19:25:07.230Z,90.50
2023-01-21T19:30:25.759Z,93.93
2023-01-21T19:35:44.896Z,92.75
2023-01-21T19:40:47.118Z,90.85
2023-01-21T19:45:52.558Z,100.93
2023-01-21T19:50:54.563Z,94.53
2023-01-21T19:55:56.993Z,79.15
2023-01-21T20:01:02.357Z,95.30
2023-01-21T20:06:04.518Z,93.80
2023-01-21T20:11:06.527Z,99.60
2023-01-21T20:16:20.957Z,109.65
2023-01-21T20:21:23.792Z,93.85
2023-01-21T20:26:28.555Z,93.10
2023-01-21T20:31:31.261Z,85.40
2023-01-21T20:36:33.180Z,89.80
2023-01-21T20:41:34.956Z,94.32
2023-01-21T20:46:36.891Z,97.15
2023-01-21T20:51:38.970Z,93.00
2023-01-21T20:56:40.740Z,101.78
2023-01-21T21:01:42.686Z,101.55
2023-01-21T21:06:45.769Z,98.95
2023-01-21T21:11:47.606Z,99.18
2023-01-21T21:16:50.093Z,106.80
2023-01-21T21:21:52.103Z,98.32
2023-01-21T21:26:53.854Z,89.95
2023-01-21T21:31:57.231Z,82.97
2023-01-21T21:37:03.742Z,80.15
2023-01-21T21:42:23.957Z,79.43
2023-01-21T21:47:44.369Z,68.38
2023-01-21T21:52:46.253Z,91.50
2023-01-21T21:57:48.479Z,77.70
2023-01-21T22:02:50.304Z,81.03
2023-01-21T22:07:55.372Z,84.22
2023-01-21T22:12:57.126Z,70.13
2023-01-21T22:17:58.911Z,64.78
2023-01-21T22:23:00.748Z,74.07
2023-01-21T22:28:02.533Z,79.97
2023-01-21T22:33:04.430Z,74.50
2023-01-21T22:38:06.949Z,70.93
2023-01-21T22:43:09.826Z,65.80
2023-01-21T22:48:11.632Z,65.10
2023-01-21T22:53:13.884Z,68.70
2023-01-21T22:58:15.692Z,73.05
2023-01-21T23:03:17.885Z,63.38
2023-01-21T23:08:20.128Z,64.20
2023-01-21T23:13:22.079Z,62.58
2023-01-21T23:18:25.840Z,52.33
2023-01-21T23:23:27.809Z,66.07
2023-01-21T23:28:29.612Z,67.00
2023-01-21T23:33:31.793Z,61.47
2023-01-21T23:38:33.646Z,66.55
2023-01-21T23:43:36.163Z,66.82
2023-01-21T23:48:38.266Z,58.65
2023-01-21T23:53:40.034Z,63.03
2023-01-21T23:58:42.193Z,64.60
